createdAt,value
2022-09-13T00:03:33.066Z,0
2022-09-13T00:08:33.249Z,0
2022-09-13T00:13:32.455Z,0
2022-09-13T00:18:32.579Z,0
2022-09-13T00:23:32.833Z,0
2022-09-13T00:28:32.936Z,0
2022-09-13T00:33:33.070Z,0
2022-09-13T00:38:33.201Z,0
2022-09-13T00:43:32.394Z,0
2022-09-13T00:48:32.524Z,0
2022-09-13T00:53:32.656Z,0
2022-09-13T00:58:32.818Z,0
2022-09-13T01:03:35.564Z,0
2022-09-13T01:08:32.665Z,0
2022-09-13T01:13:32.810Z,0
2022-09-13T01:18:32.887Z,0
2022-09-13T01:23:33.152Z,0
2022-09-13T01:28:32.310Z,0
2022-09-13T01:33:32.453Z,0
2022-09-13T01:38:32.546Z,0
2022-09-13T01:43:32.808Z,0
2022-09-13T01:48:33.134Z,0
2022-09-13T01:53:33.276Z,0
2022-09-13T01:58:33.046Z,0
2022-09-13T02:03:33.313Z,0
2022-09-13T02:08:32.503Z,0
2022-09-13T02:13:32.856Z,0
2022-09-13T02:18:33.048Z,0
2022-09-13T02:23:33.227Z,0
2022-09-13T02:28:33.272Z,0
2022-09-13T02:33:32.430Z,0
2022-09-13T02:38:32.682Z,0
2022-09-13T02:43:32.978Z,0
2022-09-13T02:48:36.763Z,0
2022-09-13T02:53:33.007Z,0
2022-09-13T02:58:33.418Z,0
2022-09-13T03:03:32.953Z,0
2022-09-13T03:08:32.875Z,0
2022-09-13T03:13:32.691Z,0
2022-09-13T03:18:32.996Z,0
2022-09-13T03:23:32.780Z,0
2022-09-13T03:28:32.614Z,0
2022-09-13T03:33:33.109Z,0
2022-09-13T03:38:32.673Z,0
2022-09-13T03:43:32.416Z,0
2022-09-13T03:48:32.846Z,0
2022-09-13T03:53:33.174Z,0
2022-09-13T03:58:32.841Z,0
2022-09-13T04:03:32.411Z,0
2022-09-13T04:08:33.059Z,0
2022-09-13T04:13:32.879Z,0
2022-09-13T04:18:33.456Z,0
2022-09-13T04:23:32.676Z,0
2022-09-13T04:28:33.216Z,0
2022-09-13T04:33:32.659Z,0
2022-09-13T04:38:33.066Z,0
2022-09-13T04:43:32.727Z,0
2022-09-13T04:48:32.926Z,0
2022-09-13T04:53:33.265Z,0
2022-09-13T04:58:32.646Z,0
2022-09-13T05:03:33.153Z,0
2022-09-13T05:08:32.752Z,0
2022-09-13T05:13:33.112Z,0
2022-09-13T05:18:33.276Z,0
2022-09-13T05:23:32.685Z,1
2022-09-13T05:28:32.801Z,1
2022-09-13T05:33:32.926Z,0
2022-09-13T05:38:33.235Z,0
2022-09-13T05:43:33.410Z,0
2022-09-13T05:48:32.516Z,0
2022-09-13T05:53:32.824Z,7.3
2022-09-13T05:58:32.898Z,7.3
2022-09-13T06:03:33.254Z,16.3
2022-09-13T06:08:33.550Z,16.3
2022-09-13T06:13:32.660Z,39.2
2022-09-13T06:18:32.825Z,39.2
2022-09-13T06:23:32.932Z,52.1
2022-09-13T06:28:35.455Z,52.1
2022-09-13T06:33:32.835Z,23.6
2022-09-13T06:38:33.049Z,23.6
2022-09-13T06:43:33.424Z,52.8
2022-09-13T06:48:32.657Z,52.8
2022-09-13T06:53:32.690Z,37.7
2022-09-13T06:58:32.849Z,37.7
2022-09-13T07:03:33.038Z,73.2
2022-09-13T07:08:33.291Z,73.2
2022-09-13T07:13:32.880Z,76.5
2022-09-13T07:18:33.290Z,76.5
2022-09-13T07:23:33.040Z,55.6
2022-09-13T07:28:35.188Z,55.6
2022-09-13T07:33:33.015Z,52.1
2022-09-13T07:38:33.240Z,52.1
2022-09-13T07:43:33.471Z,77.9
2022-09-13T07:48:33.666Z,77.9
2022-09-13T07:53:32.949Z,51.3
2022-09-13T07:58:33.440Z,51.3
2022-09-13T08:03:32.553Z,36.4
2022-09-13T08:08:32.879Z,36.4
2022-09-13T08:13:32.986Z,43.8
2022-09-13T08:18:33.292Z,43.8
2022-09-13T08:23:32.627Z,72
2022-09-13T08:28:33.045Z,72
2022-09-13T08:33:32.964Z,73.4
2022-09-13T08:38:33.331Z,73.4
2022-09-13T08:43:32.527Z,101
2022-09-13T08:48:32.625Z,101
2022-09-13T08:53:33.059Z,198.3
2022-09-13T08:58:32.732Z,198.3
2022-09-13T09:03:33.223Z,103.1
2022-09-13T09:08:32.631Z,103.1
2022-09-13T09:13:33.460Z,61.1
2022-09-13T09:18:32.857Z,61.1
2022-09-13T09:23:32.632Z,90.5
2022-09-13T09:28:33.393Z,90.5
2022-09-13T09:33:32.677Z,177.6
2022-09-13T09:38:32.919Z,177.6
2022-09-13T09:43:33.016Z,595.7
2022-09-13T09:48:32.605Z,595.7
2022-09-13T09:53:36.791Z,470.2
2022-09-13T09:58:33.689Z,470.2
2022-09-13T10:03:33.602Z,124.3
2022-09-13T10:08:33.147Z,124.3
2022-09-13T10:13:33.341Z,241
2022-09-13T10:18:43.903Z,241
2022-09-13T10:23:32.985Z,459.2
2022-09-13T10:28:33.097Z,459.2
2022-09-13T10:33:33.219Z,114
2022-09-13T10:38:33.314Z,114
2022-09-13T10:43:33.823Z,139.1
2022-09-13T10:48:33.193Z,139.1
2022-09-13T10:53:33.415Z,166.3
2022-09-13T10:58:32.640Z,166.3
2022-09-13T11:03:33.057Z,100.8
2022-09-13T11:08:33.420Z,100.8
2022-09-13T11:13:32.836Z,141
2022-09-13T11:18:33.095Z,141
2022-09-13T11:23:33.283Z,120.3
2022-09-13T11:28:33.619Z,120.3
2022-09-13T11:33:33.041Z,110.5
2022-09-13T11:38:33.310Z,110.5
2022-09-13T11:43:33.520Z,67.9
2022-09-13T11:48:33.615Z,67.9
2022-09-13T11:53:32.911Z,72.3
2022-09-13T11:58:32.774Z,72.3
2022-09-13T12:03:33.090Z,100.3
2022-09-13T12:08:33.709Z,100.3
2022-09-13T12:13:32.856Z,492.2
2022-09-13T12:18:33.040Z,492.2
2022-09-13T12:23:33.422Z,129.4
2022-09-13T12:28:32.732Z,129.4
2022-09-13T12:33:33.114Z,122.4
2022-09-13T12:38:33.242Z,122.4
2022-09-13T12:43:33.378Z,131.8
2022-09-13T12:48:33.576Z,131.8
2022-09-13T12:53:32.751Z,109.8
2022-09-13T12:58:33.020Z,109.8
2022-09-13T13:03:33.269Z,113.1
2022-09-13T13:08:33.619Z,113.1
2022-09-13T13:13:32.775Z,128
2022-09-13T13:18:33.248Z,128
2022-09-13T13:23:33.380Z,115.1
2022-09-13T13:28:33.710Z,115.1
2022-09-13T13:33:32.876Z,117.1
2022-09-13T13:38:33.462Z,117.1
2022-09-13T13:43:33.693Z,487
2022-09-13T13:48:33.176Z,487
2022-09-13T13:53:33.418Z,170.5
2022-09-13T13:58:32.961Z,170.5
2022-09-13T14:03:33.258Z,67.7
2022-09-13T14:08:33.690Z,67.7
2022-09-13T14:13:32.898Z,82.3
2022-09-13T14:18:33.106Z,82.3
2022-09-13T14:23:33.852Z,184.6
2022-09-13T14:28:33.174Z,184.6
2022-09-13T14:33:33.426Z,266.8
2022-09-13T14:38:33.585Z,266.8
2022-09-13T14:43:32.904Z,388.8
2022-09-13T14:48:33.559Z,388.8
2022-09-13T14:53:33.336Z,67.4
2022-09-13T14:58:33.530Z,67.4
2022-09-13T15:03:33.119Z,73.7
2022-09-13T15:08:33.165Z,73.7
2022-09-13T15:13:32.782Z,308
2022-09-13T15:18:36.868Z,308
2022-09-13T15:23:33.372Z,230.5
2022-09-13T15:28:32.996Z,230.5
2022-09-13T15:33:33.667Z,27.5
2022-09-13T15:38:32.965Z,27.5
2022-09-13T15:43:33.774Z,42.8
2022-09-13T15:48:33.376Z,42.8
2022-09-13T15:53:33.733Z,27.6
2022-09-13T15:58:33.169Z,27.6
2022-09-13T16:03:33.339Z,37.7
2022-09-13T16:08:33.691Z,37.7
2022-09-13T16:13:33.061Z,16.4
2022-09-13T16:18:33.623Z,16.4
2022-09-13T16:23:32.855Z,13.3
2022-09-13T16:28:33.303Z,13.3
2022-09-13T16:33:33.448Z,17.7
2022-09-13T16:38:33.612Z,17.7
2022-09-13T16:43:33.141Z,19
2022-09-13T16:48:33.413Z,19
2022-09-13T16:53:33.595Z,14
2022-09-13T16:58:33.781Z,14
2022-09-13T17:03:33.459Z,14
2022-09-13T17:08:33.765Z,14
2022-09-13T17:13:33.090Z,12.8
2022-09-13T17:18:33.262Z,12.8
2022-09-13T17:23:33.551Z,8.6
2022-09-13T17:28:33.683Z,8.6
2022-09-13T17:33:32.860Z,1
2022-09-13T17:38:33.539Z,1
2022-09-13T17:43:33.080Z,0
2022-09-13T17:48:33.687Z,0
2022-09-13T17:53:33.957Z,0
2022-09-13T17:58:33.171Z,0
2022-09-13T18:03:33.111Z,0
2022-09-13T18:08:33.444Z,0
2022-09-13T18:13:33.731Z,0
2022-09-13T18:18:33.885Z,0
2022-09-13T18:23:33.225Z,0
2022-09-13T18:28:33.422Z,0
2022-09-13T18:33:33.502Z,0
2022-09-13T18:38:33.642Z,0
2022-09-13T18:43:33.899Z,0
2022-09-13T18:48:33.151Z,0
2022-09-13T18:53:34.935Z,0
2022-09-13T18:58:33.380Z,0
2022-09-13T19:03:32.996Z,0
2022-09-13T19:08:33.421Z,0
2022-09-13T19:13:33.457Z,0
2022-09-13T19:18:33.622Z,0
2022-09-13T19:23:48.933Z,0
2022-09-13T19:28:33.781Z,0
2022-09-13T19:33:33.938Z,0
2022-09-13T19:38:33.287Z,0
2022-09-13T19:43:33.593Z,0
2022-09-13T19:48:38.782Z,0
2022-09-13T19:53:55.471Z,0
2022-09-13T19:58:33.021Z,0
2022-09-13T20:03:33.371Z,0
2022-09-13T20:08:33.833Z,0
2022-09-13T20:13:33.014Z,0
2022-09-13T20:18:33.226Z,0
2022-09-13T20:23:33.603Z,0
2022-09-13T20:28:33.782Z,0
2022-09-13T20:33:33.061Z,0
2022-09-13T20:38:33.616Z,0
2022-09-13T20:43:33.883Z,0
2022-09-13T20:48:33.298Z,0
2022-09-13T20:53:33.428Z,0
2022-09-13T20:58:33.539Z,0
2022-09-13T21:03:33.026Z,0
2022-09-13T21:08:33.707Z,0
2022-09-13T21:13:33.164Z,0
2022-09-13T21:18:33.284Z,0
2022-09-13T21:23:33.219Z,0
2022-09-13T21:28:33.836Z,0
2022-09-13T21:33:33.241Z,0
2022-09-13T21:38:33.759Z,0
2022-09-13T21:43:33.300Z,0
2022-09-13T21:48:33.626Z,0
2022-09-13T21:53:34.191Z,0
2022-09-13T21:58:33.658Z,0
2022-09-13T22:03:33.317Z,0
2022-09-13T22:08:33.558Z,0
2022-09-13T22:13:33.965Z,0
2022-09-13T22:18:33.139Z,0
2022-09-13T22:23:33.410Z,0
2022-09-13T22:28:33.522Z,0
2022-09-13T22:33:33.753Z,0
2022-09-13T22:38:33.219Z,0
2022-09-13T22:43:33.584Z,0
2022-09-13T22:48:33.667Z,0
2022-09-13T22:53:33.837Z,0
2022-09-13T22:58:33.938Z,0
2022-09-13T23:03:33.092Z,0
2022-09-13T23:08:33.291Z,0
2022-09-13T23:13:37.829Z,0
2022-09-13T23:18:33.945Z,0
2022-09-13T23:23:33.104Z,0
2022-09-13T23:28:33.353Z,0
2022-09-13T23:33:33.559Z,0
2022-09-13T23:38:33.758Z,0
2022-09-13T23:43:33.197Z,0
2022-09-13T23:48:33.344Z,0
2022-09-13T23:53:33.412Z,0
2022-09-13T23:58:33.528Z,0
